sensor_id;sensor_type;location;lat;lon;timestamp;P1;durP1;ratioP1;P2;durP2;ratioP2
18425;SDS011;9340;48.756;9.226;2022-10-30T00:00:29;10.40;;;5.97;;
18425;SDS011;9340;48.756;9.226;2022-10-30T00:02:56;6.90;;;5.30;;
18425;SDS011;9340;48.756;9.226;2022-10-30T00:05:25;6.53;;;5.37;;
18425;SDS011;9340;48.756;9.226;2022-10-30T00:07:54;7.83;;;4.80;;
18425;SDS011;9340;48.756;9.226;2022-10-30T00:10:23;6.80;;;4.83;;
18425;SDS011;9340;48.756;9.226;2022-10-30T00:12:50;9.03;;;5.10;;
18425;SDS011;9340;48.756;9.226;2022-10-30T00:15:17;9.47;;;4.97;;
18425;SDS011;9340;48.756;9.226;2022-10-30T00:17:44;7.33;;;5.23;;
18425;SDS011;9340;48.756;9.226;2022-10-30T00:20:10;6.10;;;5.10;;
18425;SDS011;9340;48.756;9.226;2022-10-30T00:22:39;8.63;;;5.10;;
18425;SDS011;9340;48.756;9.226;2022-10-30T00:25:07;10.67;;;5.50;;
18425;SDS011;9340;48.756;9.226;2022-10-30T00:27:35;8.80;;;5.13;;
18425;SDS011;9340;48.756;9.226;2022-10-30T00:30:04;14.57;;;6.57;;
18425;SDS011;9340;48.756;9.226;2022-10-30T00:32:31;7.73;;;6.20;;
18425;SDS011;9340;48.756;9.226;2022-10-30T00:34:58;9.17;;;6.27;;
18425;SDS011;9340;48.756;9.226;2022-10-30T00:37:25;10.77;;;5.57;;
18425;SDS011;9340;48.756;9.226;2022-10-30T00:39:56;7.03;;;5.00;;
18425;SDS011;9340;48.756;9.226;2022-10-30T00:42:27;11.57;;;6.13;;
18425;SDS011;9340;48.756;9.226;2022-10-30T00:44:56;11.90;;;5.70;;
18425;SDS011;9340;48.756;9.226;2022-10-30T00:47:24;7.13;;;5.17;;
18425;SDS011;9340;48.756;9.226;2022-10-30T00:49:56;10.20;;;4.83;;
18425;SDS011;9340;48.756;9.226;2022-10-30T00:52:28;9.00;;;5.47;;
18425;SDS011;9340;48.756;9.226;2022-10-30T00:55:03;9.97;;;5.77;;
18425;SDS011;9340;48.756;9.226;2022-10-30T00:57:35;12.40;;;6.03;;
18425;SDS011;9340;48.756;9.226;2022-10-30T01:00:06;15.27;;;6.23;;
18425;SDS011;9340;48.756;9.226;2022-10-30T01:02:35;8.17;;;5.10;;
18425;SDS011;9340;48.756;9.226;2022-10-30T01:05:04;8.20;;;5.47;;
18425;SDS011;9340;48.756;9.226;2022-10-30T01:07:33;8.50;;;5.40;;
18425;SDS011;9340;48.756;9.226;2022-10-30T01:10:02;10.93;;;6.83;;
18425;SDS011;9340;48.756;9.226;2022-10-30T01:12:30;11.93;;;6.47;;
18425;SDS011;9340;48.756;9.226;2022-10-30T01:14:58;9.93;;;6.00;;
18425;SDS011;9340;48.756;9.226;2022-10-30T01:17:32;9.83;;;6.27;;
18425;SDS011;9340;48.756;9.226;2022-10-30T01:20:21;9.60;;;6.23;;
18425;SDS011;9340;48.756;9.226;2022-10-30T01:22:59;11.40;;;7.07;;
18425;SDS011;9340;48.756;9.226;2022-10-30T01:25:44;10.17;;;6.70;;
18425;SDS011;9340;48.756;9.226;2022-10-30T01:28:27;13.30;;;6.80;;
18425;SDS011;9340;48.756;9.226;2022-10-30T01:31:09;10.07;;;6.37;;
18425;SDS011;9340;48.756;9.226;2022-10-30T01:33:51;11.00;;;6.60;;
18425;SDS011;9340;48.756;9.226;2022-10-30T01:36:34;8.30;;;5.73;;
18425;SDS011;9340;48.756;9.226;2022-10-30T01:39:06;7.80;;;5.77;;
18425;SDS011;9340;48.756;9.226;2022-10-30T01:41:39;9.27;;;6.77;;
18425;SDS011;9340;48.756;9.226;2022-10-30T01:44:07;7.33;;;6.17;;
18425;SDS011;9340;48.756;9.226;2022-10-30T01:46:44;9.60;;;6.20;;
18425;SDS011;9340;48.756;9.226;2022-10-30T01:49:38;10.20;;;6.80;;
18425;SDS011;9340;48.756;9.226;2022-10-30T01:52:21;14.40;;;6.67;;
18425;SDS011;9340;48.756;9.226;2022-10-30T01:55:04;11.13;;;7.83;;
18425;SDS011;9340;48.756;9.226;2022-10-30T01:57:41;11.37;;;7.00;;
18425;SDS011;9340;48.756;9.226;2022-10-30T02:00:17;10.73;;;6.50;;
18425;SDS011;9340;48.756;9.226;2022-10-30T02:02:46;10.00;;;6.93;;
18425;SDS011;9340;48.756;9.226;2022-10-30T02:05:16;14.80;;;7.17;;
18425;SDS011;9340;48.756;9.226;2022-10-30T02:07:51;12.73;;;7.47;;
18425;SDS011;9340;48.756;9.226;2022-10-30T02:10:18;12.60;;;7.70;;
18425;SDS011;9340;48.756;9.226;2022-10-30T02:12:47;12.50;;;7.77;;
18425;SDS011;9340;48.756;9.226;2022-10-30T02:15:14;9.93;;;7.00;;
18425;SDS011;9340;48.756;9.226;2022-10-30T02:17:43;12.07;;;7.53;;
18425;SDS011;9340;48.756;9.226;2022-10-30T02:20:15;11.07;;;7.20;;
18425;SDS011;9340;48.756;9.226;2022-10-30T02:22:42;8.00;;;7.20;;
18425;SDS011;9340;48.756;9.226;2022-10-30T02:25:09;12.93;;;8.00;;
18425;SDS011;9340;48.756;9.226;2022-10-30T02:27:37;13.97;;;6.90;;
18425;SDS011;9340;48.756;9.226;2022-10-30T02:30:06;11.03;;;8.33;;
18425;SDS011;9340;48.756;9.226;2022-10-30T02:32:35;11.43;;;6.77;;
18425;SDS011;9340;48.756;9.226;2022-10-30T02:35:03;10.67;;;7.10;;
18425;SDS011;9340;48.756;9.226;2022-10-30T02:37:32;9.00;;;6.40;;
18425;SDS011;9340;48.756;9.226;2022-10-30T02:39:59;11.40;;;8.43;;
18425;SDS011;9340;48.756;9.226;2022-10-30T02:42:26;9.77;;;7.83;;
18425;SDS011;9340;48.756;9.226;2022-10-30T02:44:54;10.93;;;7.17;;
18425;SDS011;9340;48.756;9.226;2022-10-30T02:47:20;12.17;;;7.27;;
18425;SDS011;9340;48.756;9.226;2022-10-30T02:49:47;12.63;;;7.63;;
18425;SDS011;9340;48.756;9.226;2022-10-30T02:52:14;12.37;;;7.60;;
18425;SDS011;9340;48.756;9.226;2022-10-30T02:54:42;10.73;;;7.00;;
18425;SDS011;9340;48.756;9.226;2022-10-30T02:57:09;10.40;;;6.53;;
18425;SDS011;9340;48.756;9.226;2022-10-30T02:59:35;20.53;;;8.23;;
18425;SDS011;9340;48.756;9.226;2022-10-30T03:02:02;11.53;;;7.37;;
18425;SDS011;9340;48.756;9.226;2022-10-30T03:04:29;9.67;;;7.10;;
18425;SDS011;9340;48.756;9.226;2022-10-30T03:06:55;10.30;;;6.50;;
18425;SDS011;9340;48.756;9.226;2022-10-30T03:09:22;11.00;;;6.53;;
18425;SDS011;9340;48.756;9.226;2022-10-30T03:11:50;6.73;;;5.77;;
18425;SDS011;9340;48.756;9.226;2022-10-30T03:14:17;8.23;;;6.47;;
18425;SDS011;9340;48.756;9.226;2022-10-30T03:16:43;9.60;;;6.63;;
18425;SDS011;9340;48.756;9.226;2022-10-30T03:19:10;10.77;;;5.63;;
18425;SDS011;9340;48.756;9.226;2022-10-30T03:21:37;8.73;;;7.10;;
18425;SDS011;9340;48.756;9.226;2022-10-30T03:24:04;10.50;;;5.80;;
18425;SDS011;9340;48.756;9.226;2022-10-30T03:26:31;8.77;;;6.40;;
18425;SDS011;9340;48.756;9.226;2022-10-30T03:28:59;7.93;;;5.93;;
18425;SDS011;9340;48.756;9.226;2022-10-30T03:31:25;13.83;;;8.13;;
18425;SDS011;9340;48.756;9.226;2022-10-30T03:33:52;8.57;;;6.27;;
18425;SDS011;9340;48.756;9.226;2022-10-30T03:36:19;11.47;;;7.00;;
18425;SDS011;9340;48.756;9.226;2022-10-30T03:38:45;10.93;;;7.17;;
18425;SDS011;9340;48.756;9.226;2022-10-30T03:41:12;10.67;;;7.00;;
18425;SDS011;9340;48.756;9.226;2022-10-30T03:43:39;11.23;;;6.20;;
18425;SDS011;9340;48.756;9.226;2022-10-30T03:46:07;8.37;;;6.20;;
18425;SDS011;9340;48.756;9.226;2022-10-30T03:48:34;11.33;;;7.27;;
18425;SDS011;9340;48.756;9.226;2022-10-30T03:51:01;10.03;;;6.13;;
18425;SDS011;9340;48.756;9.226;2022-10-30T03:53:28;12.83;;;6.93;;
18425;SDS011;9340;48.756;9.226;2022-10-30T03:55:58;12.50;;;7.17;;
18425;SDS011;9340;48.756;9.226;2022-10-30T03:58:26;8.63;;;6.33;;
18425;SDS011;9340;48.756;9.226;2022-10-30T04:00:53;14.87;;;7.63;;
18425;SDS011;9340;48.756;9.226;2022-10-30T04:03:26;11.27;;;7.40;;
18425;SDS011;9340;48.756;9.226;2022-10-30T04:05:53;7.37;;;6.23;;
18425;SDS011;9340;48.756;9.226;2022-10-30T04:08:20;9.13;;;5.70;;
18425;SDS011;9340;48.756;9.226;2022-10-30T04:10:46;9.30;;;6.57;;
18425;SDS011;9340;48.756;9.226;2022-10-30T04:13:14;11.60;;;6.33;;
18425;SDS011;9340;48.756;9.226;2022-10-30T04:15:42;8.10;;;6.03;;
18425;SDS011;9340;48.756;9.226;2022-10-30T04:18:09;8.40;;;5.90;;
18425;SDS011;9340;48.756;9.226;2022-10-30T04:20:38;9.63;;;6.50;;
18425;SDS011;9340;48.756;9.226;2022-10-30T04:23:05;6.97;;;5.67;;
18425;SDS011;9340;48.756;9.226;2022-10-30T04:25:34;8.63;;;6.27;;
18425;SDS011;9340;48.756;9.226;2022-10-30T04:28:01;8.53;;;5.60;;
18425;SDS011;9340;48.756;9.226;2022-10-30T04:30:28;11.00;;;7.17;;
18425;SDS011;9340;48.756;9.226;2022-10-30T04:32:59;9.77;;;6.20;;
18425;SDS011;9340;48.756;9.226;2022-10-30T04:35:28;11.40;;;6.17;;
18425;SDS011;9340;48.756;9.226;2022-10-30T04:37:58;7.93;;;6.57;;
18425;SDS011;9340;48.756;9.226;2022-10-30T04:40:27;8.80;;;6.30;;
18425;SDS011;9340;48.756;9.226;2022-10-30T04:42:55;9.13;;;5.33;;
18425;SDS011;9340;48.756;9.226;2022-10-30T04:45:22;9.00;;;6.03;;
18425;SDS011;9340;48.756;9.226;2022-10-30T04:47:49;10.87;;;6.87;;
18425;SDS011;9340;48.756;9.226;2022-10-30T04:50:16;8.43;;;5.83;;
18425;SDS011;9340;48.756;9.226;2022-10-30T04:52:43;9.57;;;6.00;;
18425;SDS011;9340;48.756;9.226;2022-10-30T04:55:11;12.23;;;7.30;;
18425;SDS011;9340;48.756;9.226;2022-10-30T04:57:38;10.67;;;6.67;;
18425;SDS011;9340;48.756;9.226;2022-10-30T05:00:05;8.70;;;5.93;;
18425;SDS011;9340;48.756;9.226;2022-10-30T05:02:33;6.73;;;5.77;;
18425;SDS011;9340;48.756;9.226;2022-10-30T05:05:00;11.50;;;7.03;;
18425;SDS011;9340;48.756;9.226;2022-10-30T05:07:28;11.33;;;7.27;;
18425;SDS011;9340;48.756;9.226;2022-10-30T05:09:54;9.20;;;6.33;;
18425;SDS011;9340;48.756;9.226;2022-10-30T05:12:22;10.53;;;6.03;;
18425;SDS011;9340;48.756;9.226;2022-10-30T05:14:49;12.13;;;7.90;;
18425;SDS011;9340;48.756;9.226;2022-10-30T05:17:16;12.77;;;7.23;;
18425;SDS011;9340;48.756;9.226;2022-10-30T05:19:42;11.17;;;7.50;;
18425;SDS011;9340;48.756;9.226;2022-10-30T05:22:09;8.50;;;6.10;;
18425;SDS011;9340;48.756;9.226;2022-10-30T05:24:36;13.90;;;7.10;;
18425;SDS011;9340;48.756;9.226;2022-10-30T05:27:03;7.63;;;6.30;;
18425;SDS011;9340;48.756;9.226;2022-10-30T05:29:31;11.27;;;5.80;;
18425;SDS011;9340;48.756;9.226;2022-10-30T05:31:58;8.50;;;5.87;;
18425;SDS011;9340;48.756;9.226;2022-10-30T05:34:25;8.67;;;5.70;;
18425;SDS011;9340;48.756;9.226;2022-10-30T05:36:51;9.57;;;6.27;;
18425;SDS011;9340;48.756;9.226;2022-10-30T05:39:18;8.40;;;6.13;;
18425;SDS011;9340;48.756;9.226;2022-10-30T05:41:45;9.17;;;6.87;;
18425;SDS011;9340;48.756;9.226;2022-10-30T05:44:11;8.43;;;5.80;;
18425;SDS011;9340;48.756;9.226;2022-10-30T05:46:39;7.37;;;6.07;;
18425;SDS011;9340;48.756;9.226;2022-10-30T05:49:06;8.93;;;7.00;;
18425;SDS011;9340;48.756;9.226;2022-10-30T05:51:33;13.73;;;8.67;;
18425;SDS011;9340;48.756;9.226;2022-10-30T05:54:00;9.03;;;7.30;;
18425;SDS011;9340;48.756;9.226;2022-10-30T05:56:26;9.57;;;5.70;;
18425;SDS011;9340;48.756;9.226;2022-10-30T05:58:53;11.80;;;7.27;;
18425;SDS011;9340;48.756;9.226;2022-10-30T06:01:20;7.67;;;5.30;;
18425;SDS011;9340;48.756;9.226;2022-10-30T06:03:48;7.57;;;5.67;;
18425;SDS011;9340;48.756;9.226;2022-10-30T06:06:14;10.20;;;6.00;;
18425;SDS011;9340;48.756;9.226;2022-10-30T06:08:41;9.50;;;5.70;;
18425;SDS011;9340;48.756;9.226;2022-10-30T06:11:08;11.77;;;6.70;;
18425;SDS011;9340;48.756;9.226;2022-10-30T06:13:34;9.87;;;6.33;;
18425;SDS011;9340;48.756;9.226;2022-10-30T06:16:01;12.40;;;5.80;;
18425;SDS011;9340;48.756;9.226;2022-10-30T06:18:28;11.47;;;7.07;;
18425;SDS011;9340;48.756;9.226;2022-10-30T06:20:56;12.13;;;7.13;;
18425;SDS011;9340;48.756;9.226;2022-10-30T06:23:23;8.47;;;6.70;;
18425;SDS011;9340;48.756;9.226;2022-10-30T06:25:51;10.17;;;7.50;;
18425;SDS011;9340;48.756;9.226;2022-10-30T06:28:17;9.30;;;5.70;;
18425;SDS011;9340;48.756;9.226;2022-10-30T06:30:44;12.20;;;7.70;;
18425;SDS011;9340;48.756;9.226;2022-10-30T06:33:11;9.03;;;6.00;;
18425;SDS011;9340;48.756;9.226;2022-10-30T06:35:37;11.37;;;7.23;;
18425;SDS011;9340;48.756;9.226;2022-10-30T06:38:05;10.00;;;7.87;;
18425;SDS011;9340;48.756;9.226;2022-10-30T06:40:34;10.73;;;7.77;;
18425;SDS011;9340;48.756;9.226;2022-10-30T06:43:00;9.73;;;6.90;;
18425;SDS011;9340;48.756;9.226;2022-10-30T06:45:27;9.27;;;6.83;;
18425;SDS011;9340;48.756;9.226;2022-10-30T06:47:54;16.03;;;7.40;;
18425;SDS011;9340;48.756;9.226;2022-10-30T06:50:21;9.03;;;6.13;;
18425;SDS011;9340;48.756;9.226;2022-10-30T06:52:48;8.73;;;5.80;;
18425;SDS011;9340;48.756;9.226;2022-10-30T06:55:16;7.77;;;5.30;;
18425;SDS011;9340;48.756;9.226;2022-10-30T06:57:43;11.80;;;6.50;;
18425;SDS011;9340;48.756;9.226;2022-10-30T07:00:10;13.90;;;6.33;;
18425;SDS011;9340;48.756;9.226;2022-10-30T07:02:38;10.50;;;6.13;;
18425;SDS011;9340;48.756;9.226;2022-10-30T07:05:04;6.93;;;5.13;;
18425;SDS011;9340;48.756;9.226;2022-10-30T07:07:32;8.63;;;5.93;;
18425;SDS011;9340;48.756;9.226;2022-10-30T07:09:58;7.47;;;5.23;;
18425;SDS011;9340;48.756;9.226;2022-10-30T07:12:26;9.80;;;5.97;;
18425;SDS011;9340;48.756;9.226;2022-10-30T07:14:53;7.73;;;5.80;;
18425;SDS011;9340;48.756;9.226;2022-10-30T07:17:20;11.63;;;5.97;;
18425;SDS011;9340;48.756;9.226;2022-10-30T07:19:47;6.63;;;5.93;;
18425;SDS011;9340;48.756;9.226;2022-10-30T07:22:13;11.13;;;7.30;;
18425;SDS011;9340;48.756;9.226;2022-10-30T07:24:40;9.00;;;6.10;;
18425;SDS011;9340;48.756;9.226;2022-10-30T07:27:07;8.47;;;6.60;;
18425;SDS011;9340;48.756;9.226;2022-10-30T07:29:35;9.73;;;7.00;;
18425;SDS011;9340;48.756;9.226;2022-10-30T07:32:01;9.33;;;6.60;;
18425;SDS011;9340;48.756;9.226;2022-10-30T07:34:28;11.10;;;6.90;;
18425;SDS011;9340;48.756;9.226;2022-10-30T07:36:56;12.47;;;7.13;;
18425;SDS011;9340;48.756;9.226;2022-10-30T07:39:23;16.53;;;9.03;;
18425;SDS011;9340;48.756;9.226;2022-10-30T07:41:49;11.83;;;7.13;;
18425;SDS011;9340;48.756;9.226;2022-10-30T07:44:16;10.87;;;8.33;;
18425;SDS011;9340;48.756;9.226;2022-10-30T07:46:45;12.27;;;7.33;;
18425;SDS011;9340;48.756;9.226;2022-10-30T07:49:12;12.20;;;7.63;;
18425;SDS011;9340;48.756;9.226;2022-10-30T07:51:38;10.73;;;8.40;;
18425;SDS011;9340;48.756;9.226;2022-10-30T07:54:05;11.77;;;8.33;;
18425;SDS011;9340;48.756;9.226;2022-10-30T07:56:32;10.67;;;8.13;;
18425;SDS011;9340;48.756;9.226;2022-10-30T07:58:59;10.00;;;6.93;;
18425;SDS011;9340;48.756;9.226;2022-10-30T08:01:26;10.83;;;7.53;;
18425;SDS011;9340;48.756;9.226;2022-10-30T08:03:54;11.93;;;8.20;;
18425;SDS011;9340;48.756;9.226;2022-10-30T08:06:21;12.50;;;7.40;;
18425;SDS011;9340;48.756;9.226;2022-10-30T08:08:48;12.47;;;7.87;;
18425;SDS011;9340;48.756;9.226;2022-10-30T08:11:14;9.77;;;7.13;;
18425;SDS011;9340;48.756;9.226;2022-10-30T08:13:41;10.03;;;7.97;;
18425;SDS011;9340;48.756;9.226;2022-10-30T08:16:08;10.63;;;7.50;;
18425;SDS011;9340;48.756;9.226;2022-10-30T08:18:34;12.67;;;7.23;;
18425;SDS011;9340;48.756;9.226;2022-10-30T08:21:04;11.37;;;7.57;;
18425;SDS011;9340;48.756;9.226;2022-10-30T08:23:30;10.23;;;7.47;;
18425;SDS011;9340;48.756;9.226;2022-10-30T08:25:57;9.43;;;7.27;;
18425;SDS011;9340;48.756;9.226;2022-10-30T08:28:25;9.60;;;6.43;;
18425;SDS011;9340;48.756;9.226;2022-10-30T08:30:52;8.07;;;6.33;;
18425;SDS011;9340;48.756;9.226;2022-10-30T08:33:18;9.67;;;6.70;;
18425;SDS011;9340;48.756;9.226;2022-10-30T08:35:46;14.73;;;7.93;;
18425;SDS011;9340;48.756;9.226;2022-10-30T08:38:15;11.10;;;7.30;;
18425;SDS011;9340;48.756;9.226;2022-10-30T08:40:42;9.77;;;6.83;;
18425;SDS011;9340;48.756;9.226;2022-10-30T08:43:09;9.37;;;7.20;;
18425;SDS011;9340;48.756;9.226;2022-10-30T08:45:36;11.27;;;6.70;;
18425;SDS011;9340;48.756;9.226;2022-10-30T08:48:03;11.47;;;6.67;;
18425;SDS011;9340;48.756;9.226;2022-10-30T08:50:31;11.60;;;7.23;;
18425;SDS011;9340;48.756;9.226;2022-10-30T08:52:59;13.07;;;6.67;;
18425;SDS011;9340;48.756;9.226;2022-10-30T08:55:30;14.63;;;8.13;;
18425;SDS011;9340;48.756;9.226;2022-10-30T08:57:57;10.73;;;6.47;;
18425;SDS011;9340;48.756;9.226;2022-10-30T09:00:24;12.87;;;8.00;;
18425;SDS011;9340;48.756;9.226;2022-10-30T09:02:51;16.20;;;7.53;;
18425;SDS011;9340;48.756;9.226;2022-10-30T09:05:18;11.00;;;7.57;;
18425;SDS011;9340;48.756;9.226;2022-10-30T09:07:45;10.40;;;6.63;;
18425;SDS011;9340;48.756;9.226;2022-10-30T09:10:12;11.23;;;6.83;;
18425;SDS011;9340;48.756;9.226;2022-10-30T09:12:41;13.87;;;6.60;;
18425;SDS011;9340;48.756;9.226;2022-10-30T09:15:08;8.87;;;6.47;;
18425;SDS011;9340;48.756;9.226;2022-10-30T09:17:34;14.47;;;6.67;;
18425;SDS011;9340;48.756;9.226;2022-10-30T09:20:01;10.37;;;6.27;;
18425;SDS011;9340;48.756;9.226;2022-10-30T09:22:28;9.33;;;6.03;;
18425;SDS011;9340;48.756;9.226;2022-10-30T09:24:55;11.03;;;6.83;;
18425;SDS011;9340;48.756;9.226;2022-10-30T09:27:22;10.10;;;6.13;;
18425;SDS011;9340;48.756;9.226;2022-10-30T09:29:50;8.53;;;6.10;;
18425;SDS011;9340;48.756;9.226;2022-10-30T09:32:16;13.50;;;6.90;;
18425;SDS011;9340;48.756;9.226;2022-10-30T09:34:43;7.53;;;5.72;;
18425;SDS011;9340;48.756;9.226;2022-10-30T09:37:10;8.90;;;5.83;;
18425;SDS011;9340;48.756;9.226;2022-10-30T09:39:37;10.88;;;7.65;;
18425;SDS011;9340;48.756;9.226;2022-10-30T09:42:08;9.23;;;5.93;;
18425;SDS011;9340;48.756;9.226;2022-10-30T09:44:56;13.93;;;6.22;;
18425;SDS011;9340;48.756;9.226;2022-10-30T09:47:32;8.05;;;6.18;;
18425;SDS011;9340;48.756;9.226;2022-10-30T09:50:17;15.80;;;6.57;;
18425;SDS011;9340;48.756;9.226;2022-10-30T09:52:52;10.88;;;6.28;;
18425;SDS011;9340;48.756;9.226;2022-10-30T09:55:29;11.73;;;6.47;;
18425;SDS011;9340;48.756;9.226;2022-10-30T09:58:02;9.93;;;6.13;;
18425;SDS011;9340;48.756;9.226;2022-10-30T10:00:38;14.95;;;6.05;;
18425;SDS011;9340;48.756;9.226;2022-10-30T10:03:16;9.18;;;6.40;;
18425;SDS011;9340;48.756;9.226;2022-10-30T10:05:54;8.43;;;6.35;;
18425;SDS011;9340;48.756;9.226;2022-10-30T10:08:26;8.80;;;6.38;;
18425;SDS011;9340;48.756;9.226;2022-10-30T10:10:56;12.48;;;6.93;;
18425;SDS011;9340;48.756;9.226;2022-10-30T10:13:28;11.60;;;7.30;;
18425;SDS011;9340;48.756;9.226;2022-10-30T10:16:03;8.48;;;5.65;;
18425;SDS011;9340;48.756;9.226;2022-10-30T10:18:36;10.10;;;6.75;;
18425;SDS011;9340;48.756;9.226;2022-10-30T10:21:12;10.13;;;6.05;;
18425;SDS011;9340;48.756;9.226;2022-10-30T10:23:58;8.68;;;5.25;;
18425;SDS011;9340;48.756;9.226;2022-10-30T10:26:28;10.75;;;5.90;;
18425;SDS011;9340;48.756;9.226;2022-10-30T10:29:04;9.25;;;5.82;;
18425;SDS011;9340;48.756;9.226;2022-10-30T10:31:48;9.48;;;5.80;;
18425;SDS011;9340;48.756;9.226;2022-10-30T10:34:32;10.35;;;6.00;;
18425;SDS011;9340;48.756;9.226;2022-10-30T10:37:12;9.70;;;6.45;;
18425;SDS011;9340;48.756;9.226;2022-10-30T10:39:49;14.05;;;6.28;;
18425;SDS011;9340;48.756;9.226;2022-10-30T10:42:30;7.40;;;5.30;;
18425;SDS011;9340;48.756;9.226;2022-10-30T10:45:11;8.25;;;6.10;;
18425;SDS011;9340;48.756;9.226;2022-10-30T10:47:51;8.80;;;5.72;;
18425;SDS011;9340;48.756;9.226;2022-10-30T10:50:26;10.75;;;6.40;;
18425;SDS011;9340;48.756;9.226;2022-10-30T10:52:56;8.35;;;5.68;;
18425;SDS011;9340;48.756;9.226;2022-10-30T10:55:30;9.18;;;5.43;;
18425;SDS011;9340;48.756;9.226;2022-10-30T10:58:03;11.48;;;5.57;;
18425;SDS011;9340;48.756;9.226;2022-10-30T11:00:35;13.70;;;6.25;;
18425;SDS011;9340;48.756;9.226;2022-10-30T11:03:04;10.00;;;5.50;;
18425;SDS011;9340;48.756;9.226;2022-10-30T11:05:37;9.80;;;5.85;;
18425;SDS011;9340;48.756;9.226;2022-10-30T11:08:09;9.15;;;6.45;;
18425;SDS011;9340;48.756;9.226;2022-10-30T11:10:41;8.25;;;6.00;;
18425;SDS011;9340;48.756;9.226;2022-10-30T11:13:09;12.23;;;6.65;;
18425;SDS011;9340;48.756;9.226;2022-10-30T11:15:45;9.45;;;5.85;;
18425;SDS011;9340;48.756;9.226;2022-10-30T11:18:21;9.07;;;6.13;;
18425;SDS011;9340;48.756;9.226;2022-10-30T11:20:50;12.95;;;6.15;;
18425;SDS011;9340;48.756;9.226;2022-10-30T11:23:29;9.80;;;6.00;;
18425;SDS011;9340;48.756;9.226;2022-10-30T11:28:51;7.32;;;5.45;;
18425;SDS011;9340;48.756;9.226;2022-10-30T11:31:21;16.55;;;6.72;;
18425;SDS011;9340;48.756;9.226;2022-10-30T11:33:53;10.85;;;6.60;;
18425;SDS011;9340;48.756;9.226;2022-10-30T11:36:21;13.50;;;5.97;;
18425;SDS011;9340;48.756;9.226;2022-10-30T11:38:49;8.38;;;5.18;;
18425;SDS011;9340;48.756;9.226;2022-10-30T11:41:15;9.30;;;5.88;;
18425;SDS011;9340;48.756;9.226;2022-10-30T11:43:43;8.35;;;5.60;;
18425;SDS011;9340;48.756;9.226;2022-10-30T11:46:10;14.35;;;7.05;;
18425;SDS011;9340;48.756;9.226;2022-10-30T11:48:45;8.02;;;5.57;;
18425;SDS011;9340;48.756;9.226;2022-10-30T11:51:27;11.55;;;5.72;;
18425;SDS011;9340;48.756;9.226;2022-10-30T11:53:57;8.63;;;5.90;;
18425;SDS011;9340;48.756;9.226;2022-10-30T11:56:25;12.40;;;6.88;;
18425;SDS011;9340;48.756;9.226;2022-10-30T11:58:53;9.00;;;6.05;;
18425;SDS011;9340;48.756;9.226;2022-10-30T12:01:24;9.15;;;5.70;;
18425;SDS011;9340;48.756;9.226;2022-10-30T12:03:52;9.32;;;6.15;;
18425;SDS011;9340;48.756;9.226;2022-10-30T12:06:24;9.43;;;6.35;;
18425;SDS011;9340;48.756;9.226;2022-10-30T12:08:57;9.80;;;5.82;;
18425;SDS011;9340;48.756;9.226;2022-10-30T12:11:29;7.07;;;5.40;;
18425;SDS011;9340;48.756;9.226;2022-10-30T12:13:56;6.82;;;5.80;;
18425;SDS011;9340;48.756;9.226;2022-10-30T12:16:25;8.10;;;5.80;;
18425;SDS011;9340;48.756;9.226;2022-10-30T12:18:53;9.48;;;5.88;;
18425;SDS011;9340;48.756;9.226;2022-10-30T12:21:24;7.53;;;5.53;;
18425;SDS011;9340;48.756;9.226;2022-10-30T12:23:54;9.90;;;5.85;;
18425;SDS011;9340;48.756;9.226;2022-10-30T12:26:25;9.15;;;6.53;;
18425;SDS011;9340;48.756;9.226;2022-10-30T12:28:54;11.48;;;6.07;;
18425;SDS011;9340;48.756;9.226;2022-10-30T12:31:25;10.00;;;6.00;;
18425;SDS011;9340;48.756;9.226;2022-10-30T12:34:01;11.20;;;5.85;;
18425;SDS011;9340;48.756;9.226;2022-10-30T12:36:43;6.22;;;4.97;;
18425;SDS011;9340;48.756;9.226;2022-10-30T12:39:16;8.25;;;6.03;;
18425;SDS011;9340;48.756;9.226;2022-10-30T12:41:50;8.98;;;6.22;;
18425;SDS011;9340;48.756;9.226;2022-10-30T12:44:26;9.82;;;6.60;;
18425;SDS011;9340;48.756;9.226;2022-10-30T12:46:59;10.57;;;6.30;;
18425;SDS011;9340;48.756;9.226;2022-10-30T12:49:30;7.40;;;5.32;;
18425;SDS011;9340;48.756;9.226;2022-10-30T12:52:05;8.32;;;6.18;;
18425;SDS011;9340;48.756;9.226;2022-10-30T12:54:40;10.07;;;6.35;;
18425;SDS011;9340;48.756;9.226;2022-10-30T12:57:13;7.57;;;6.03;;
18425;SDS011;9340;48.756;9.226;2022-10-30T12:59:45;7.32;;;5.78;;
18425;SDS011;9340;48.756;9.226;2022-10-30T13:02:25;6.57;;;5.28;;
18425;SDS011;9340;48.756;9.226;2022-10-30T13:04:59;9.02;;;5.80;;
18425;SDS011;9340;48.756;9.226;2022-10-30T13:07:32;7.70;;;5.20;;
18425;SDS011;9340;48.756;9.226;2022-10-30T13:10:04;8.13;;;5.35;;
18425;SDS011;9340;48.756;9.226;2022-10-30T13:12:43;8.63;;;5.40;;
18425;SDS011;9340;48.756;9.226;2022-10-30T13:15:19;8.15;;;5.10;;
18425;SDS011;9340;48.756;9.226;2022-10-30T13:17:49;8.02;;;6.07;;
18425;SDS011;9340;48.756;9.226;2022-10-30T13:20:16;8.88;;;6.60;;
18425;SDS011;9340;48.756;9.226;2022-10-30T13:22:44;9.52;;;6.25;;
18425;SDS011;9340;48.756;9.226;2022-10-30T13:25:18;11.35;;;6.60;;
18425;SDS011;9340;48.756;9.226;2022-10-30T13:27:51;9.80;;;6.53;;
18425;SDS011;9340;48.756;9.226;2022-10-30T13:30:22;10.45;;;7.28;;
18425;SDS011;9340;48.756;9.226;2022-10-30T13:32:58;12.52;;;8.10;;
18425;SDS011;9340;48.756;9.226;2022-10-30T13:35:32;12.25;;;7.53;;
18425;SDS011;9340;48.756;9.226;2022-10-30T13:38:09;11.18;;;7.47;;
18425;SDS011;9340;48.756;9.226;2022-10-30T13:40:48;11.13;;;7.45;;
18425;SDS011;9340;48.756;9.226;2022-10-30T13:43:21;14.25;;;7.60;;
18425;SDS011;9340;48.756;9.226;2022-10-30T13:45:55;9.75;;;7.38;;
18425;SDS011;9340;48.756;9.226;2022-10-30T13:48:37;14.90;;;7.30;;
18425;SDS011;9340;48.756;9.226;2022-10-30T13:51:17;11.13;;;7.30;;
18425;SDS011;9340;48.756;9.226;2022-10-30T13:53:54;8.35;;;6.50;;
18425;SDS011;9340;48.756;9.226;2022-10-30T13:56:30;12.98;;;6.88;;
18425;SDS011;9340;48.756;9.226;2022-10-30T13:59:01;10.52;;;7.70;;
18425;SDS011;9340;48.756;9.226;2022-10-30T14:01:38;10.20;;;7.00;;
18425;SDS011;9340;48.756;9.226;2022-10-30T14:04:11;8.95;;;6.30;;
18425;SDS011;9340;48.756;9.226;2022-10-30T14:06:44;10.60;;;6.75;;
18425;SDS011;9340;48.756;9.226;2022-10-30T14:09:19;9.63;;;6.40;;
18425;SDS011;9340;48.756;9.226;2022-10-30T14:11:53;7.40;;;6.55;;
18425;SDS011;9340;48.756;9.226;2022-10-30T14:14:24;9.27;;;6.55;;
18425;SDS011;9340;48.756;9.226;2022-10-30T14:17:08;7.65;;;6.03;;
18425;SDS011;9340;48.756;9.226;2022-10-30T14:22:36;10.50;;;6.82;;
18425;SDS011;9340;48.756;9.226;2022-10-30T14:25:10;12.48;;;6.63;;
18425;SDS011;9340;48.756;9.226;2022-10-30T14:27:39;12.88;;;7.47;;
18425;SDS011;9340;48.756;9.226;2022-10-30T14:30:14;11.13;;;7.35;;
18425;SDS011;9340;48.756;9.226;2022-10-30T14:32:47;8.55;;;7.13;;
18425;SDS011;9340;48.756;9.226;2022-10-30T14:38:20;10.55;;;6.45;;
18425;SDS011;9340;48.756;9.226;2022-10-30T14:41:00;7.75;;;5.82;;
18425;SDS011;9340;48.756;9.226;2022-10-30T14:43:54;10.77;;;5.40;;
18425;SDS011;9340;48.756;9.226;2022-10-30T14:46:32;9.90;;;6.20;;
18425;SDS011;9340;48.756;9.226;2022-10-30T14:49:10;12.05;;;6.57;;
18425;SDS011;9340;48.756;9.226;2022-10-30T14:51:58;10.55;;;5.70;;
18425;SDS011;9340;48.756;9.226;2022-10-30T14:54:37;8.48;;;5.53;;
18425;SDS011;9340;48.756;9.226;2022-10-30T14:57:18;9.68;;;5.53;;
18425;SDS011;9340;48.756;9.226;2022-10-30T14:59:48;8.23;;;4.90;;
18425;SDS011;9340;48.756;9.226;2022-10-30T15:02:36;7.07;;;5.47;;
18425;SDS011;9340;48.756;9.226;2022-10-30T15:05:20;7.05;;;6.35;;
18425;SDS011;9340;48.756;9.226;2022-10-30T15:08:04;9.32;;;5.15;;
18425;SDS011;9340;48.756;9.226;2022-10-30T15:10:48;12.98;;;4.60;;
18425;SDS011;9340;48.756;9.226;2022-10-30T15:13:25;11.93;;;4.75;;
18425;SDS011;9340;48.756;9.226;2022-10-30T15:15:57;9.05;;;3.97;;
18425;SDS011;9340;48.756;9.226;2022-10-30T15:18:25;5.80;;;3.75;;
18425;SDS011;9340;48.756;9.226;2022-10-30T15:20:52;6.50;;;4.18;;
18425;SDS011;9340;48.756;9.226;2022-10-30T15:23:23;6.72;;;3.92;;